sensor_id;sensor_type;location;lat;lon;timestamp;P1;durP1;ratioP1;P2;durP2;ratioP2
55114;SDS011;41010;53.252;5.786;2023-07-16T00:01:07;6.47;;;2.47;;
55114;SDS011;41010;53.252;5.786;2023-07-16T00:03:35;9.20;;;3.13;;
55114;SDS011;41010;53.252;5.786;2023-07-16T00:06:02;10.38;;;2.65;;
55114;SDS011;41010;53.252;5.786;2023-07-16T00:08:29;10.98;;;3.15;;
55114;SDS011;41010;53.252;5.786;2023-07-16T00:10:56;11.57;;;2.88;;
55114;SDS011;41010;53.252;5.786;2023-07-16T00:13:24;8.13;;;2.50;;
55114;SDS011;41010;53.252;5.786;2023-07-16T00:15:52;13.60;;;3.20;;
55114;SDS011;41010;53.252;5.786;2023-07-16T00:18:19;8.98;;;3.20;;
55114;SDS011;41010;53.252;5.786;2023-07-16T00:20:47;9.70;;;2.55;;
55114;SDS011;41010;53.252;5.786;2023-07-16T00:23:14;7.05;;;2.17;;
55114;SDS011;41010;53.252;5.786;2023-07-16T00:25:41;11.30;;;2.85;;
55114;SDS011;41010;53.252;5.786;2023-07-16T00:28:08;8.95;;;2.33;;
55114;SDS011;41010;53.252;5.786;2023-07-16T00:30:37;6.25;;;2.45;;
55114;SDS011;41010;53.252;5.786;2023-07-16T00:33:05;9.38;;;2.83;;
55114;SDS011;41010;53.252;5.786;2023-07-16T00:35:32;7.35;;;2.40;;
55114;SDS011;41010;53.252;5.786;2023-07-16T00:38:00;6.65;;;2.30;;
55114;SDS011;41010;53.252;5.786;2023-07-16T00:40:27;10.25;;;2.78;;
55114;SDS011;41010;53.252;5.786;2023-07-16T00:42:54;7.57;;;2.30;;
55114;SDS011;41010;53.252;5.786;2023-07-16T00:45:21;9.20;;;2.63;;
55114;SDS011;41010;53.252;5.786;2023-07-16T00:47:49;14.15;;;2.90;;
55114;SDS011;41010;53.252;5.786;2023-07-16T00:50:17;10.50;;;2.83;;
55114;SDS011;41010;53.252;5.786;2023-07-16T00:52:45;11.57;;;2.90;;
55114;SDS011;41010;53.252;5.786;2023-07-16T00:55:12;9.60;;;3.38;;
55114;SDS011;41010;53.252;5.786;2023-07-16T00:57:39;8.57;;;2.92;;
55114;SDS011;41010;53.252;5.786;2023-07-16T01:00:07;8.32;;;2.67;;
55114;SDS011;41010;53.252;5.786;2023-07-16T01:02:35;9.90;;;2.70;;
55114;SDS011;41010;53.252;5.786;2023-07-16T01:05:03;15.10;;;3.35;;
55114;SDS011;41010;53.252;5.786;2023-07-16T01:07:31;7.60;;;2.50;;
55114;SDS011;41010;53.252;5.786;2023-07-16T01:09:59;14.73;;;3.13;;
55114;SDS011;41010;53.252;5.786;2023-07-16T01:12:27;13.13;;;3.03;;
55114;SDS011;41010;53.252;5.786;2023-07-16T01:14:54;14.35;;;2.97;;
55114;SDS011;41010;53.252;5.786;2023-07-16T01:17:23;11.15;;;3.15;;
55114;SDS011;41010;53.252;5.786;2023-07-16T01:19:50;7.55;;;2.65;;
55114;SDS011;41010;53.252;5.786;2023-07-16T01:22:25;12.68;;;2.95;;
55114;SDS011;41010;53.252;5.786;2023-07-16T01:25:06;14.15;;;2.85;;
55114;SDS011;41010;53.252;5.786;2023-07-16T01:27:59;11.82;;;3.25;;
55114;SDS011;41010;53.252;5.786;2023-07-16T01:30:29;12.00;;;3.10;;
55114;SDS011;41010;53.252;5.786;2023-07-16T01:32:57;10.27;;;2.95;;
55114;SDS011;41010;53.252;5.786;2023-07-16T01:35:25;11.02;;;2.70;;
55114;SDS011;41010;53.252;5.786;2023-07-16T01:37:53;9.98;;;2.85;;
55114;SDS011;41010;53.252;5.786;2023-07-16T01:40:20;5.88;;;2.50;;
55114;SDS011;41010;53.252;5.786;2023-07-16T01:42:47;10.52;;;2.60;;
55114;SDS011;41010;53.252;5.786;2023-07-16T01:45:14;10.02;;;3.25;;
55114;SDS011;41010;53.252;5.786;2023-07-16T01:47:45;8.23;;;2.45;;
55114;SDS011;41010;53.252;5.786;2023-07-16T01:50:16;8.50;;;2.90;;
55114;SDS011;41010;53.252;5.786;2023-07-16T01:52:44;11.55;;;2.70;;
55114;SDS011;41010;53.252;5.786;2023-07-16T01:55:11;10.25;;;2.45;;
55114;SDS011;41010;53.252;5.786;2023-07-16T01:57:38;11.00;;;2.78;;
55114;SDS011;41010;53.252;5.786;2023-07-16T02:00:06;8.82;;;2.72;;
55114;SDS011;41010;53.252;5.786;2023-07-16T02:02:34;6.00;;;2.70;;
55114;SDS011;41010;53.252;5.786;2023-07-16T02:05:02;6.70;;;2.22;;
55114;SDS011;41010;53.252;5.786;2023-07-16T02:07:30;8.30;;;2.53;;
55114;SDS011;41010;53.252;5.786;2023-07-16T02:09:57;10.02;;;2.72;;
55114;SDS011;41010;53.252;5.786;2023-07-16T02:12:24;10.23;;;2.55;;
55114;SDS011;41010;53.252;5.786;2023-07-16T02:14:51;13.52;;;2.97;;
55114;SDS011;41010;53.252;5.786;2023-07-16T02:17:18;11.27;;;3.40;;
55114;SDS011;41010;53.252;5.786;2023-07-16T02:19:46;10.38;;;2.90;;
55114;SDS011;41010;53.252;5.786;2023-07-16T02:22:14;8.50;;;3.25;;
55114;SDS011;41010;53.252;5.786;2023-07-16T02:24:41;11.73;;;2.72;;
55114;SDS011;41010;53.252;5.786;2023-07-16T02:27:09;9.50;;;2.60;;
55114;SDS011;41010;53.252;5.786;2023-07-16T02:29:36;10.73;;;2.53;;
55114;SDS011;41010;53.252;5.786;2023-07-16T02:32:04;9.93;;;2.40;;
55114;SDS011;41010;53.252;5.786;2023-07-16T02:34:31;12.88;;;2.92;;
55114;SDS011;41010;53.252;5.786;2023-07-16T02:36:58;9.27;;;2.30;;
55114;SDS011;41010;53.252;5.786;2023-07-16T02:39:27;9.38;;;2.60;;
55114;SDS011;41010;53.252;5.786;2023-07-16T02:41:54;5.32;;;2.20;;
55114;SDS011;41010;53.252;5.786;2023-07-16T02:44:21;5.88;;;2.40;;
55114;SDS011;41010;53.252;5.786;2023-07-16T02:46:48;8.30;;;2.90;;
55114;SDS011;41010;53.252;5.786;2023-07-16T02:49:16;7.57;;;2.58;;
55114;SDS011;41010;53.252;5.786;2023-07-16T02:51:43;13.75;;;2.83;;
55114;SDS011;41010;53.252;5.786;2023-07-16T02:54:10;13.57;;;3.03;;
55114;SDS011;41010;53.252;5.786;2023-07-16T02:56:39;9.40;;;3.10;;
55114;SDS011;41010;53.252;5.786;2023-07-16T02:59:06;10.07;;;3.08;;
55114;SDS011;41010;53.252;5.786;2023-07-16T03:01:33;10.20;;;3.20;;
55114;SDS011;41010;53.252;5.786;2023-07-16T03:04:00;10.38;;;3.20;;
55114;SDS011;41010;53.252;5.786;2023-07-16T03:06:28;14.43;;;3.35;;
55114;SDS011;41010;53.252;5.786;2023-07-16T03:08:55;14.18;;;2.88;;
55114;SDS011;41010;53.252;5.786;2023-07-16T03:11:22;11.90;;;3.00;;
55114;SDS011;41010;53.252;5.786;2023-07-16T03:13:51;12.15;;;3.78;;
55114;SDS011;41010;53.252;5.786;2023-07-16T03:16:18;10.82;;;3.83;;
55114;SDS011;41010;53.252;5.786;2023-07-16T03:18:45;12.48;;;3.72;;
55114;SDS011;41010;53.252;5.786;2023-07-16T03:21:13;10.75;;;3.85;;
55114;SDS011;41010;53.252;5.786;2023-07-16T03:23:40;7.78;;;3.53;;
55114;SDS011;41010;53.252;5.786;2023-07-16T03:26:07;9.73;;;3.20;;
55114;SDS011;41010;53.252;5.786;2023-07-16T03:28:35;10.20;;;3.20;;
55114;SDS011;41010;53.252;5.786;2023-07-16T03:31:03;8.52;;;2.88;;
55114;SDS011;41010;53.252;5.786;2023-07-16T03:33:31;8.63;;;3.25;;
55114;SDS011;41010;53.252;5.786;2023-07-16T03:35:58;10.88;;;3.70;;
55114;SDS011;41010;53.252;5.786;2023-07-16T03:38:25;11.05;;;3.97;;
55114;SDS011;41010;53.252;5.786;2023-07-16T03:40:52;13.85;;;3.30;;
55114;SDS011;41010;53.252;5.786;2023-07-16T03:43:19;12.63;;;4.25;;
55114;SDS011;41010;53.252;5.786;2023-07-16T03:45:47;10.68;;;3.30;;
55114;SDS011;41010;53.252;5.786;2023-07-16T03:48:15;17.27;;;3.72;;
55114;SDS011;41010;53.252;5.786;2023-07-16T03:50:43;10.02;;;3.80;;
55114;SDS011;41010;53.252;5.786;2023-07-16T03:53:10;11.35;;;4.13;;
55114;SDS011;41010;53.252;5.786;2023-07-16T03:55:37;18.50;;;4.28;;
55114;SDS011;41010;53.252;5.786;2023-07-16T03:58:05;12.43;;;3.88;;
55114;SDS011;41010;53.252;5.786;2023-07-16T04:00:32;13.43;;;3.83;;
55114;SDS011;41010;53.252;5.786;2023-07-16T04:02:59;10.45;;;3.47;;
55114;SDS011;41010;53.252;5.786;2023-07-16T04:05:28;14.43;;;4.00;;
55114;SDS011;41010;53.252;5.786;2023-07-16T04:07:55;11.93;;;4.40;;
55114;SDS011;41010;53.252;5.786;2023-07-16T04:10:22;14.25;;;3.65;;
55114;SDS011;41010;53.252;5.786;2023-07-16T04:12:50;12.15;;;3.67;;
55114;SDS011;41010;53.252;5.786;2023-07-16T04:15:17;9.50;;;3.55;;
55114;SDS011;41010;53.252;5.786;2023-07-16T04:17:45;8.82;;;4.00;;
55114;SDS011;41010;53.252;5.786;2023-07-16T04:20:12;8.93;;;3.67;;
55114;SDS011;41010;53.252;5.786;2023-07-16T04:22:41;11.55;;;3.38;;
55114;SDS011;41010;53.252;5.786;2023-07-16T04:25:08;8.82;;;3.42;;
55114;SDS011;41010;53.252;5.786;2023-07-16T04:27:35;11.80;;;3.47;;
55114;SDS011;41010;53.252;5.786;2023-07-16T04:30:03;15.85;;;4.07;;
55114;SDS011;41010;53.252;5.786;2023-07-16T04:32:30;10.05;;;3.70;;
55114;SDS011;41010;53.252;5.786;2023-07-16T04:34:57;8.82;;;3.60;;
55114;SDS011;41010;53.252;5.786;2023-07-16T04:37:24;10.70;;;4.20;;
55114;SDS011;41010;53.252;5.786;2023-07-16T04:39:53;9.68;;;3.58;;
55114;SDS011;41010;53.252;5.786;2023-07-16T04:42:20;10.95;;;3.65;;
55114;SDS011;41010;53.252;5.786;2023-07-16T04:44:47;9.73;;;4.18;;
55114;SDS011;41010;53.252;5.786;2023-07-16T04:47:15;9.75;;;3.75;;
55114;SDS011;41010;53.252;5.786;2023-07-16T04:49:42;10.30;;;3.42;;
55114;SDS011;41010;53.252;5.786;2023-07-16T04:52:09;7.30;;;3.38;;
55114;SDS011;41010;53.252;5.786;2023-07-16T04:54:37;11.82;;;3.78;;
55114;SDS011;41010;53.252;5.786;2023-07-16T04:57:06;7.25;;;3.38;;
55114;SDS011;41010;53.252;5.786;2023-07-16T04:59:34;9.15;;;3.10;;
55114;SDS011;41010;53.252;5.786;2023-07-16T05:02:02;11.77;;;3.15;;
55114;SDS011;41010;53.252;5.786;2023-07-16T05:04:29;9.82;;;3.25;;
55114;SDS011;41010;53.252;5.786;2023-07-16T05:06:56;9.68;;;3.10;;
55114;SDS011;41010;53.252;5.786;2023-07-16T05:09:24;11.32;;;3.38;;
55114;SDS011;41010;53.252;5.786;2023-07-16T05:11:51;10.18;;;3.53;;
55114;SDS011;41010;53.252;5.786;2023-07-16T05:14:19;12.45;;;2.90;;
55114;SDS011;41010;53.252;5.786;2023-07-16T05:16:47;11.82;;;3.30;;
55114;SDS011;41010;53.252;5.786;2023-07-16T05:19:14;14.77;;;3.28;;
55114;SDS011;41010;53.252;5.786;2023-07-16T05:21:41;13.32;;;3.90;;
55114;SDS011;41010;53.252;5.786;2023-07-16T05:24:08;9.02;;;3.42;;
55114;SDS011;41010;53.252;5.786;2023-07-16T05:26:36;11.30;;;3.20;;
55114;SDS011;41010;53.252;5.786;2023-07-16T05:29:03;9.55;;;3.47;;
55114;SDS011;41010;53.252;5.786;2023-07-16T05:31:32;11.65;;;3.72;;
55114;SDS011;41010;53.252;5.786;2023-07-16T05:33:59;11.45;;;3.97;;
55114;SDS011;41010;53.252;5.786;2023-07-16T05:36:26;13.07;;;4.22;;
55114;SDS011;41010;53.252;5.786;2023-07-16T05:38:54;11.05;;;4.35;;
55114;SDS011;41010;53.252;5.786;2023-07-16T05:41:21;12.48;;;4.25;;
55114;SDS011;41010;53.252;5.786;2023-07-16T05:43:48;12.52;;;3.80;;
55114;SDS011;41010;53.252;5.786;2023-07-16T05:46:16;13.88;;;3.90;;
55114;SDS011;41010;53.252;5.786;2023-07-16T05:48:44;10.35;;;3.90;;
55114;SDS011;41010;53.252;5.786;2023-07-16T05:51:11;9.20;;;3.45;;
55114;SDS011;41010;53.252;5.786;2023-07-16T05:53:39;11.45;;;3.70;;
55114;SDS011;41010;53.252;5.786;2023-07-16T05:56:06;13.48;;;4.20;;
55114;SDS011;41010;53.252;5.786;2023-07-16T05:58:33;17.75;;;4.22;;
55114;SDS011;41010;53.252;5.786;2023-07-16T06:01:00;14.48;;;3.70;;
55114;SDS011;41010;53.252;5.786;2023-07-16T06:03:28;9.90;;;3.83;;
55114;SDS011;41010;53.252;5.786;2023-07-16T06:05:56;12.63;;;3.40;;
55114;SDS011;41010;53.252;5.786;2023-07-16T06:08:24;12.45;;;3.60;;
55114;SDS011;41010;53.252;5.786;2023-07-16T06:10:51;10.90;;;3.78;;
55114;SDS011;41010;53.252;5.786;2023-07-16T06:13:18;12.30;;;3.22;;
55114;SDS011;41010;53.252;5.786;2023-07-16T06:15:46;7.03;;;3.03;;
55114;SDS011;41010;53.252;5.786;2023-07-16T06:18:13;11.02;;;3.80;;
55114;SDS011;41010;53.252;5.786;2023-07-16T06:20:43;13.13;;;4.07;;
55114;SDS011;41010;53.252;5.786;2023-07-16T06:23:11;13.02;;;3.60;;
55114;SDS011;41010;53.252;5.786;2023-07-16T06:25:41;14.38;;;4.03;;
55114;SDS011;41010;53.252;5.786;2023-07-16T06:28:09;13.55;;;3.92;;
55114;SDS011;41010;53.252;5.786;2023-07-16T06:30:37;12.38;;;4.32;;
55114;SDS011;41010;53.252;5.786;2023-07-16T06:33:04;10.90;;;3.92;;
55114;SDS011;41010;53.252;5.786;2023-07-16T06:35:31;10.93;;;4.13;;
55114;SDS011;41010;53.252;5.786;2023-07-16T06:37:59;13.63;;;4.63;;
55114;SDS011;41010;53.252;5.786;2023-07-16T06:40:28;9.43;;;4.00;;
55114;SDS011;41010;53.252;5.786;2023-07-16T06:42:55;16.33;;;4.25;;
55114;SDS011;41010;53.252;5.786;2023-07-16T06:45:22;14.50;;;4.55;;
55114;SDS011;41010;53.252;5.786;2023-07-16T06:47:49;14.95;;;4.75;;
55114;SDS011;41010;53.252;5.786;2023-07-16T06:50:17;12.38;;;4.60;;
55114;SDS011;41010;53.252;5.786;2023-07-16T06:52:44;12.23;;;4.43;;
55114;SDS011;41010;53.252;5.786;2023-07-16T06:55:11;14.00;;;4.07;;
55114;SDS011;41010;53.252;5.786;2023-07-16T06:57:40;10.85;;;4.20;;
55114;SDS011;41010;53.252;5.786;2023-07-16T07:00:07;12.45;;;3.92;;
55114;SDS011;41010;53.252;5.786;2023-07-16T07:02:36;11.32;;;3.33;;
55114;SDS011;41010;53.252;5.786;2023-07-16T07:05:04;14.05;;;4.30;;
55114;SDS011;41010;53.252;5.786;2023-07-16T07:07:31;15.13;;;3.95;;
55114;SDS011;41010;53.252;5.786;2023-07-16T07:09:58;14.70;;;3.45;;
55114;SDS011;41010;53.252;5.786;2023-07-16T07:12:26;16.73;;;3.65;;
55114;SDS011;41010;53.252;5.786;2023-07-16T07:14:54;13.13;;;3.50;;
55114;SDS011;41010;53.252;5.786;2023-07-16T07:17:22;9.68;;;2.60;;
55114;SDS011;41010;53.252;5.786;2023-07-16T07:19:49;14.73;;;3.47;;
55114;SDS011;41010;53.252;5.786;2023-07-16T07:22:16;16.08;;;3.03;;
55114;SDS011;41010;53.252;5.786;2023-07-16T07:24:43;11.55;;;2.90;;
55114;SDS011;41010;53.252;5.786;2023-07-16T07:27:11;19.85;;;3.35;;
55114;SDS011;41010;53.252;5.786;2023-07-16T07:29:38;9.75;;;2.45;;
55114;SDS011;41010;53.252;5.786;2023-07-16T07:32:07;18.58;;;2.70;;
55114;SDS011;41010;53.252;5.786;2023-07-16T07:34:34;8.15;;;1.88;;
55114;SDS011;41010;53.252;5.786;2023-07-16T07:37:02;11.98;;;2.63;;
55114;SDS011;41010;53.252;5.786;2023-07-16T07:39:32;11.80;;;2.35;;
55114;SDS011;41010;53.252;5.786;2023-07-16T07:41:59;12.32;;;2.83;;
55114;SDS011;41010;53.252;5.786;2023-07-16T07:44:26;16.10;;;3.10;;
55114;SDS011;41010;53.252;5.786;2023-07-16T07:46:54;10.50;;;3.03;;
55114;SDS011;41010;53.252;5.786;2023-07-16T07:49:22;13.15;;;3.85;;
55114;SDS011;41010;53.252;5.786;2023-07-16T07:51:49;7.25;;;3.35;;
55114;SDS011;41010;53.252;5.786;2023-07-16T07:54:17;8.77;;;3.35;;
55114;SDS011;41010;53.252;5.786;2023-07-16T07:56:44;9.77;;;2.80;;
55114;SDS011;41010;53.252;5.786;2023-07-16T07:59:12;10.25;;;2.85;;
55114;SDS011;41010;53.252;5.786;2023-07-16T08:01:39;7.90;;;2.90;;
55114;SDS011;41010;53.252;5.786;2023-07-16T08:04:07;11.38;;;3.63;;
55114;SDS011;41010;53.252;5.786;2023-07-16T08:06:35;11.55;;;3.17;;
55114;SDS011;41010;53.252;5.786;2023-07-16T08:09:02;7.70;;;3.30;;
55114;SDS011;41010;53.252;5.786;2023-07-16T08:11:30;8.85;;;2.88;;
55114;SDS011;41010;53.252;5.786;2023-07-16T08:13:58;11.60;;;3.28;;
55114;SDS011;41010;53.252;5.786;2023-07-16T08:16:25;12.10;;;4.15;;
55114;SDS011;41010;53.252;5.786;2023-07-16T08:18:52;9.32;;;3.13;;
55114;SDS011;41010;53.252;5.786;2023-07-16T08:21:19;7.50;;;2.85;;
55114;SDS011;41010;53.252;5.786;2023-07-16T08:23:48;8.55;;;3.15;;
55114;SDS011;41010;53.252;5.786;2023-07-16T08:26:16;11.77;;;3.67;;
55114;SDS011;41010;53.252;5.786;2023-07-16T08:28:43;9.10;;;3.20;;
55114;SDS011;41010;53.252;5.786;2023-07-16T08:31:11;9.10;;;3.17;;
55114;SDS011;41010;53.252;5.786;2023-07-16T08:33:38;8.25;;;3.10;;
55114;SDS011;41010;53.252;5.786;2023-07-16T08:36:05;10.68;;;3.08;;
55114;SDS011;41010;53.252;5.786;2023-07-16T08:38:32;11.02;;;3.20;;
55114;SDS011;41010;53.252;5.786;2023-07-16T08:41:01;12.30;;;3.00;;
55114;SDS011;41010;53.252;5.786;2023-07-16T08:43:28;13.45;;;2.88;;
55114;SDS011;41010;53.252;5.786;2023-07-16T08:45:55;10.50;;;3.17;;
55114;SDS011;41010;53.252;5.786;2023-07-16T08:48:23;8.68;;;2.83;;
55114;SDS011;41010;53.252;5.786;2023-07-16T08:50:51;11.07;;;2.97;;
55114;SDS011;41010;53.252;5.786;2023-07-16T08:53:18;9.50;;;2.00;;
55114;SDS011;41010;53.252;5.786;2023-07-16T08:55:45;11.52;;;2.40;;
55114;SDS011;41010;53.252;5.786;2023-07-16T08:58:14;7.30;;;2.10;;
55114;SDS011;41010;53.252;5.786;2023-07-16T09:00:42;9.02;;;1.98;;
55114;SDS011;41010;53.252;5.786;2023-07-16T09:03:10;4.78;;;1.60;;
55114;SDS011;41010;53.252;5.786;2023-07-16T09:05:38;11.27;;;1.92;;
55114;SDS011;41010;53.252;5.786;2023-07-16T09:08:05;8.05;;;1.65;;
55114;SDS011;41010;53.252;5.786;2023-07-16T09:10:33;7.30;;;1.50;;
55114;SDS011;41010;53.252;5.786;2023-07-16T09:13:00;9.32;;;1.92;;
55114;SDS011;41010;53.252;5.786;2023-07-16T09:15:29;11.73;;;2.28;;
55114;SDS011;41010;53.252;5.786;2023-07-16T09:17:59;11.88;;;3.33;;
55114;SDS011;41010;53.252;5.786;2023-07-16T09:20:26;11.57;;;2.97;;
55114;SDS011;41010;53.252;5.786;2023-07-16T09:22:55;7.95;;;3.08;;
55114;SDS011;41010;53.252;5.786;2023-07-16T09:25:25;10.65;;;2.78;;
55114;SDS011;41010;53.252;5.786;2023-07-16T09:27:52;7.68;;;2.75;;
55114;SDS011;41010;53.252;5.786;2023-07-16T09:30:20;7.28;;;2.20;;
55114;SDS011;41010;53.252;5.786;2023-07-16T09:32:49;9.63;;;3.10;;
55114;SDS011;41010;53.252;5.786;2023-07-16T09:35:16;8.30;;;3.13;;
55114;SDS011;41010;53.252;5.786;2023-07-16T09:37:44;9.32;;;3.58;;
55114;SDS011;41010;53.252;5.786;2023-07-16T09:40:11;8.18;;;3.20;;
55114;SDS011;41010;53.252;5.786;2023-07-16T09:42:39;8.27;;;3.08;;
55114;SDS011;41010;53.252;5.786;2023-07-16T09:45:07;9.85;;;2.92;;
55114;SDS011;41010;53.252;5.786;2023-07-16T09:47:35;6.97;;;2.83;;
55114;SDS011;41010;53.252;5.786;2023-07-16T09:50:04;9.05;;;3.20;;
55114;SDS011;41010;53.252;5.786;2023-07-16T09:52:31;7.28;;;2.40;;
55114;SDS011;41010;53.252;5.786;2023-07-16T09:55:00;12.77;;;3.00;;
55114;SDS011;41010;53.252;5.786;2023-07-16T09:57:28;7.38;;;2.85;;
55114;SDS011;41010;53.252;5.786;2023-07-16T09:59:57;11.63;;;3.13;;
55114;SDS011;41010;53.252;5.786;2023-07-16T10:02:25;12.88;;;2.85;;
55114;SDS011;41010;53.252;5.786;2023-07-16T10:04:52;13.70;;;2.80;;
55114;SDS011;41010;53.252;5.786;2023-07-16T10:07:24;9.13;;;2.63;;
55114;SDS011;41010;53.252;5.786;2023-07-16T10:09:52;11.75;;;2.22;;
55114;SDS011;41010;53.252;5.786;2023-07-16T10:12:21;9.55;;;2.20;;
55114;SDS011;41010;53.252;5.786;2023-07-16T10:14:49;6.82;;;1.90;;
55114;SDS011;41010;53.252;5.786;2023-07-16T10:17:17;10.45;;;2.33;;
55114;SDS011;41010;53.252;5.786;2023-07-16T10:19:51;7.10;;;2.10;;
55114;SDS011;41010;53.252;5.786;2023-07-16T10:22:32;13.98;;;2.58;;
55114;SDS011;41010;53.252;5.786;2023-07-16T10:24:59;6.13;;;2.10;;
55114;SDS011;41010;53.252;5.786;2023-07-16T10:27:28;7.72;;;2.45;;
55114;SDS011;41010;53.252;5.786;2023-07-16T10:29:55;11.95;;;2.38;;
55114;SDS011;41010;53.252;5.786;2023-07-16T10:32:25;8.52;;;2.80;;
55114;SDS011;41010;53.252;5.786;2023-07-16T10:34:53;12.63;;;2.90;;
55114;SDS011;41010;53.252;5.786;2023-07-16T10:37:20;13.52;;;2.40;;
55114;SDS011;41010;53.252;5.786;2023-07-16T10:39:49;6.35;;;1.75;;
55114;SDS011;41010;53.252;5.786;2023-07-16T10:42:17;10.88;;;2.25;;
55114;SDS011;41010;53.252;5.786;2023-07-16T10:44:44;6.75;;;2.13;;
55114;SDS011;41010;53.252;5.786;2023-07-16T10:47:17;10.38;;;2.30;;
55114;SDS011;41010;53.252;5.786;2023-07-16T10:49:46;9.57;;;2.70;;
55114;SDS011;41010;53.252;5.786;2023-07-16T10:52:13;10.93;;;2.53;;
55114;SDS011;41010;53.252;5.786;2023-07-16T10:54:40;7.78;;;2.58;;
55114;SDS011;41010;53.252;5.786;2023-07-16T10:57:09;7.68;;;2.20;;
55114;SDS011;41010;53.252;5.786;2023-07-16T10:59:37;8.57;;;2.38;;
55114;SDS011;41010;53.252;5.786;2023-07-16T11:02:05;9.30;;;2.35;;
55114;SDS011;41010;53.252;5.786;2023-07-16T11:04:33;7.60;;;1.95;;
55114;SDS011;41010;53.252;5.786;2023-07-16T11:07:03;12.50;;;2.38;;
55114;SDS011;41010;53.252;5.786;2023-07-16T11:09:31;8.52;;;2.00;;
55114;SDS011;41010;53.252;5.786;2023-07-16T11:12:05;10.63;;;2.40;;
55114;SDS011;41010;53.252;5.786;2023-07-16T11:14:33;6.80;;;2.10;;
55114;SDS011;41010;53.252;5.786;2023-07-16T11:17:04;6.82;;;1.83;;
55114;SDS011;41010;53.252;5.786;2023-07-16T11:19:32;10.07;;;2.08;;
55114;SDS011;41010;53.252;5.786;2023-07-16T11:21:59;8.90;;;1.70;;
55114;SDS011;41010;53.252;5.786;2023-07-16T11:24:27;11.43;;;1.90;;
55114;SDS011;41010;53.252;5.786;2023-07-16T11:26:54;6.25;;;1.70;;
55114;SDS011;41010;53.252;5.786;2023-07-16T11:29:23;8.75;;;1.42;;
55114;SDS011;41010;53.252;5.786;2023-07-16T11:31:52;10.02;;;1.90;;
55114;SDS011;41010;53.252;5.786;2023-07-16T11:34:20;6.97;;;1.80;;
55114;SDS011;41010;53.252;5.786;2023-07-16T11:36:48;6.22;;;1.50;;
55114;SDS011;41010;53.252;5.786;2023-07-16T11:39:15;6.82;;;1.80;;
55114;SDS011;41010;53.252;5.786;2023-07-16T11:41:53;6.75;;;1.33;;
55114;SDS011;41010;53.252;5.786;2023-07-16T11:44:20;5.53;;;1.40;;
55114;SDS011;41010;53.252;5.786;2023-07-16T11:46:47;8.43;;;1.48;;
55114;SDS011;41010;53.252;5.786;2023-07-16T11:49:16;8.05;;;1.40;;
55114;SDS011;41010;53.252;5.786;2023-07-16T11:51:44;6.70;;;1.73;;
55114;SDS011;41010;53.252;5.786;2023-07-16T11:54:11;7.05;;;1.70;;
55114;SDS011;41010;53.252;5.786;2023-07-16T11:56:38;7.57;;;1.60;;
55114;SDS011;41010;53.252;5.786;2023-07-16T11:59:05;8.68;;;1.55;;
55114;SDS011;41010;53.252;5.786;2023-07-16T12:01:33;7.55;;;1.40;;
55114;SDS011;41010;53.252;5.786;2023-07-16T12:04:00;9.38;;;1.48;;
55114;SDS011;41010;53.252;5.786;2023-07-16T12:06:29;9.68;;;1.63;;
55114;SDS011;41010;53.252;5.786;2023-07-16T12:08:56;12.80;;;1.60;;
55114;SDS011;41010;53.252;5.786;2023-07-16T12:11:23;5.15;;;1.50;;
55114;SDS011;41010;53.252;5.786;2023-07-16T12:13:50;9.57;;;1.90;;
55114;SDS011;41010;53.252;5.786;2023-07-16T12:16:18;12.02;;;2.20;;
55114;SDS011;41010;53.252;5.786;2023-07-16T12:18:45;9.68;;;1.98;;
55114;SDS011;41010;53.252;5.786;2023-07-16T12:21:12;12.70;;;2.10;;
55114;SDS011;41010;53.252;5.786;2023-07-16T12:23:41;8.45;;;1.60;;
55114;SDS011;41010;53.252;5.786;2023-07-16T12:26:08;7.78;;;1.45;;
55114;SDS011;41010;53.252;5.786;2023-07-16T12:28:35;8.90;;;1.55;;
55114;SDS011;41010;53.252;5.786;2023-07-16T12:31:02;10.90;;;1.42;;
55114;SDS011;41010;53.252;5.786;2023-07-16T12:33:30;12.32;;;1.45;;
55114;SDS011;41010;53.252;5.786;2023-07-16T12:35:57;8.73;;;1.55;;
55114;SDS011;41010;53.252;5.786;2023-07-16T12:38:24;11.35;;;1.95;;
55114;SDS011;41010;53.252;5.786;2023-07-16T12:40:53;9.02;;;1.73;;
55114;SDS011;41010;53.252;5.786;2023-07-16T12:43:20;15.20;;;1.80;;
55114;SDS011;41010;53.252;5.786;2023-07-16T12:45:47;16.80;;;2.03;;
55114;SDS011;41010;53.252;5.786;2023-07-16T12:48:14;11.13;;;2.00;;
55114;SDS011;41010;53.252;5.786;2023-07-16T12:50:41;6.03;;;2.05;;
55114;SDS011;41010;53.252;5.786;2023-07-16T12:53:09;8.48;;;1.60;;
55114;SDS011;41010;53.252;5.786;2023-07-16T12:55:37;8.80;;;1.80;;
55114;SDS011;41010;53.252;5.786;2023-07-16T12:58:05;6.68;;;1.65;;
55114;SDS011;41010;53.252;5.786;2023-07-16T13:00:32;10.43;;;1.95;;
55114;SDS011;41010;53.252;5.786;2023-07-16T13:03:00;10.68;;;1.73;;
55114;SDS011;41010;53.252;5.786;2023-07-16T13:05:28;6.90;;;1.55;;
55114;SDS011;41010;53.252;5.786;2023-07-16T13:07:55;11.48;;;1.83;;
55114;SDS011;41010;53.252;5.786;2023-07-16T13:10:22;10.10;;;2.05;;
55114;SDS011;41010;53.252;5.786;2023-07-16T13:12:49;6.22;;;1.58;;
55114;SDS011;41010;53.252;5.786;2023-07-16T13:15:18;7.78;;;1.50;;
55114;SDS011;41010;53.252;5.786;2023-07-16T13:17:47;8.00;;;1.52;;
55114;SDS011;41010;53.252;5.786;2023-07-16T13:20:14;9.93;;;1.40;;
55114;SDS011;41010;53.252;5.786;2023-07-16T13:22:41;6.65;;;1.27;;
55114;SDS011;41010;53.252;5.786;2023-07-16T13:25:09;3.90;;;1.20;;
55114;SDS011;41010;53.252;5.786;2023-07-16T13:27:36;6.28;;;1.30;;
55114;SDS011;41010;53.252;5.786;2023-07-16T13:30:03;4.03;;;1.15;;
55114;SDS011;41010;53.252;5.786;2023-07-16T13:32:32;7.05;;;1.48;;
55114;SDS011;41010;53.252;5.786;2023-07-16T13:35:00;6.30;;;1.33;;
55114;SDS011;41010;53.252;5.786;2023-07-16T13:37:28;9.45;;;2.20;;
55114;SDS011;41010;53.252;5.786;2023-07-16T13:39:55;5.18;;;1.63;;
55114;SDS011;41010;53.252;5.786;2023-07-16T13:42:22;7.93;;;1.40;;
55114;SDS011;41010;53.252;5.786;2023-07-16T13:44:49;9.88;;;2.40;;
55114;SDS011;41010;53.252;5.786;2023-07-16T13:47:17;9.43;;;1.45;;
55114;SDS011;41010;53.252;5.786;2023-07-16T13:49:47;8.85;;;1.30;;
55114;SDS011;41010;53.252;5.786;2023-07-16T13:52:14;10.82;;;2.05;;
55114;SDS011;41010;53.252;5.786;2023-07-16T13:54:42;12.70;;;1.98;;
55114;SDS011;41010;53.252;5.786;2023-07-16T13:57:09;8.27;;;2.08;;
55114;SDS011;41010;53.252;5.786;2023-07-16T13:59:36;10.75;;;2.10;;
55114;SDS011;41010;53.252;5.786;2023-07-16T14:02:03;4.65;;;1.35;;
55114;SDS011;41010;53.252;5.786;2023-07-16T14:04:31;6.88;;;1.70;;
55114;SDS011;41010;53.252;5.786;2023-07-16T14:06:59;7.97;;;1.58;;
55114;SDS011;41010;53.252;5.786;2023-07-16T14:09:27;12.45;;;1.98;;
55114;SDS011;41010;53.252;5.786;2023-07-16T14:11:54;9.75;;;1.70;;
55114;SDS011;41010;53.252;5.786;2023-07-16T14:14:21;6.95;;;1.50;;
55114;SDS011;41010;53.252;5.786;2023-07-16T14:16:49;8.65;;;1.60;;
55114;SDS011;41010;53.252;5.786;2023-07-16T14:19:16;10.40;;;1.88;;
55114;SDS011;41010;53.252;5.786;2023-07-16T14:21:43;6.28;;;1.40;;
55114;SDS011;41010;53.252;5.786;2023-07-16T14:24:12;6.85;;;1.50;;
55114;SDS011;41010;53.252;5.786;2023-07-16T14:26:39;4.32;;;1.40;;
55114;SDS011;41010;53.252;5.786;2023-07-16T14:29:07;5.30;;;1.27;;
55114;SDS011;41010;53.252;5.786;2023-07-16T14:31:36;6.93;;;2.03;;
55114;SDS011;41010;53.252;5.786;2023-07-16T14:34:03;6.85;;;1.30;;
55114;SDS011;41010;53.252;5.786;2023-07-16T14:36:30;5.80;;;1.55;;
55114;SDS011;41010;53.252;5.786;2023-07-16T14:38:58;5.65;;;1.70;;
55114;SDS011;41010;53.252;5.786;2023-07-16T14:41:26;6.88;;;1.60;;
55114;SDS011;41010;53.252;5.786;2023-07-16T14:43:53;5.88;;;1.58;;